createdAt,value
2023-05-15T00:01:50.581Z,14.22
2023-05-15T00:04:20.855Z,14.22
2023-05-15T00:06:49.788Z,14.23
2023-05-15T00:09:18.572Z,14.25
2023-05-15T00:11:47.363Z,14.25
2023-05-15T00:14:16.523Z,14.27
2023-05-15T00:16:46.040Z,14.28
2023-05-15T00:19:15.978Z,14.30
2023-05-15T00:21:45.527Z,14.34
2023-05-15T00:24:15.115Z,14.36
2023-05-15T00:26:44.053Z,14.37
2023-05-15T00:29:12.897Z,14.36
2023-05-15T00:31:43.238Z,14.35
2023-05-15T00:34:12.133Z,14.35
2023-05-15T00:36:41.364Z,14.35
2023-05-15T00:39:12.199Z,14.35
2023-05-15T00:41:41.533Z,14.34
2023-05-15T00:44:12.098Z,14.34
2023-05-15T00:46:41.230Z,14.34
2023-05-15T00:49:13.880Z,14.34
2023-05-15T00:51:44.563Z,14.35
2023-05-15T00:54:15.355Z,14.35
2023-05-15T00:56:45.425Z,14.35
2023-05-15T00:59:14.188Z,14.36
2023-05-15T01:01:45.591Z,14.37
2023-05-15T01:04:14.571Z,14.37
2023-05-15T01:06:44.896Z,14.37
2023-05-15T01:09:15.527Z,14.37
2023-05-15T01:11:45.255Z,14.38
2023-05-15T01:14:14.329Z,14.38
2023-05-15T01:16:43.030Z,14.38
2023-05-15T01:19:13.966Z,14.38
2023-05-15T01:21:48.762Z,14.38
2023-05-15T01:24:34.178Z,14.38
2023-05-15T01:27:08.393Z,14.38
2023-05-15T01:30:03.797Z,14.38
2023-05-15T01:32:39.283Z,14.39
2023-05-15T01:35:11.481Z,14.40
2023-05-15T01:37:44.508Z,14.39
2023-05-15T01:40:15.593Z,14.40
2023-05-15T01:42:48.973Z,14.42
2023-05-15T01:45:18.695Z,14.44
2023-05-15T01:47:49.054Z,14.45
2023-05-15T01:50:20.644Z,14.44
2023-05-15T01:52:56.179Z,14.44
2023-05-15T01:55:28.393Z,14.45
2023-05-15T01:58:00.296Z,14.45
2023-05-15T02:00:30.918Z,14.45
2023-05-15T02:03:02.377Z,14.45
2023-05-15T02:05:31.585Z,14.45
2023-05-15T02:08:01.224Z,14.45
2023-05-15T02:10:31.217Z,14.46
2023-05-15T02:13:00.920Z,14.46
2023-05-15T02:15:31.176Z,14.46
2023-05-15T02:18:00.486Z,14.46
2023-05-15T02:20:31.149Z,14.46
2023-05-15T02:23:00.428Z,14.48
2023-05-15T02:25:42.236Z,14.49
2023-05-15T02:28:18.277Z,14.50
2023-05-15T02:30:53.648Z,14.48
2023-05-15T02:33:28.172Z,14.47
2023-05-15T02:36:04.006Z,14.48
2023-05-15T02:38:39.621Z,14.47
2023-05-15T02:41:08.654Z,14.47
2023-05-15T02:43:38.748Z,14.47
2023-05-15T02:46:08.610Z,14.45
2023-05-15T02:48:40.160Z,14.45
2023-05-15T02:51:09.678Z,14.42
2023-05-15T02:53:42.035Z,14.43
2023-05-15T02:56:12.744Z,14.42
2023-05-15T02:58:41.907Z,14.41
2023-05-15T03:01:12.840Z,14.39
2023-05-15T03:03:43.154Z,14.39
2023-05-15T03:06:12.582Z,14.39
2023-05-15T03:08:42.861Z,14.40
2023-05-15T03:11:11.516Z,14.39
2023-05-15T03:13:41.511Z,14.38
2023-05-15T03:16:10.431Z,14.37
2023-05-15T03:18:39.465Z,14.37
2023-05-15T03:21:08.158Z,14.37
2023-05-15T03:23:38.197Z,14.37
2023-05-15T03:26:11.156Z,14.36
2023-05-15T03:28:42.180Z,14.36
2023-05-15T03:31:14.774Z,14.33
2023-05-15T03:33:50.202Z,14.34
2023-05-15T03:36:19.655Z,14.34
2023-05-15T03:38:48.644Z,14.36
2023-05-15T03:41:18.791Z,14.36
2023-05-15T03:43:47.570Z,14.36
2023-05-15T03:46:20.193Z,14.36
2023-05-15T03:48:50.653Z,14.36
2023-05-15T03:51:21.185Z,14.37
2023-05-15T03:53:50.168Z,14.38
2023-05-15T03:56:19.398Z,14.40
2023-05-15T03:58:48.988Z,14.40
2023-05-15T04:01:18.755Z,14.41
2023-05-15T04:03:47.818Z,14.41
2023-05-15T04:06:17.426Z,14.40
2023-05-15T04:08:47.907Z,14.40
2023-05-15T04:11:19.657Z,14.39
2023-05-15T04:13:48.970Z,14.38
2023-05-15T04:16:17.702Z,14.38
2023-05-15T04:18:46.490Z,14.38
2023-05-15T04:21:17.496Z,14.39
2023-05-15T04:23:46.299Z,14.41
2023-05-15T04:26:15.611Z,14.43
2023-05-15T04:28:52.444Z,14.49
2023-05-15T04:31:32.987Z,14.53
2023-05-15T04:34:01.903Z,14.57
2023-05-15T04:36:30.663Z,14.59
2023-05-15T04:39:00.009Z,14.60
2023-05-15T04:41:30.220Z,14.60
2023-05-15T04:44:00.130Z,14.61
2023-05-15T04:46:30.244Z,14.61
2023-05-15T04:48:59.777Z,14.63
2023-05-15T04:51:29.821Z,14.65
2023-05-15T04:53:58.697Z,14.65
2023-05-15T04:56:28.510Z,14.66
2023-05-15T04:58:57.297Z,14.68
2023-05-15T05:01:27.763Z,14.70
2023-05-15T05:03:56.875Z,14.74
2023-05-15T05:06:27.002Z,14.77
2023-05-15T05:08:58.723Z,14.80
2023-05-15T05:11:30.381Z,14.85
2023-05-15T05:14:00.979Z,14.90
2023-05-15T05:16:30.304Z,14.95
2023-05-15T05:19:01.723Z,14.97
2023-05-15T05:21:34.178Z,15.00
2023-05-15T05:24:02.951Z,15.03
2023-05-15T05:26:31.870Z,15.06
2023-05-15T05:29:00.561Z,15.07
2023-05-15T05:31:30.961Z,15.08
2023-05-15T05:34:01.733Z,15.05
2023-05-15T05:36:30.690Z,15.03
2023-05-15T05:38:59.554Z,15.03
2023-05-15T05:41:28.380Z,15.04
2023-05-15T05:43:59.929Z,15.05
2023-05-15T05:46:30.257Z,15.07
2023-05-15T05:49:00.007Z,15.09
2023-05-15T05:51:29.210Z,15.08
2023-05-15T05:54:02.297Z,15.08
2023-05-15T05:56:34.794Z,15.10
2023-05-15T05:59:04.329Z,15.08
2023-05-15T06:01:33.326Z,15.11
2023-05-15T06:04:02.267Z,15.12
2023-05-15T06:06:31.366Z,15.13
2023-05-15T06:09:00.737Z,15.12
2023-05-15T06:11:29.673Z,15.16
2023-05-15T06:13:58.441Z,15.18
2023-05-15T06:16:27.312Z,15.17
2023-05-15T06:18:56.575Z,15.15
2023-05-15T06:21:25.679Z,15.13
2023-05-15T06:23:55.137Z,15.11
2023-05-15T06:26:25.096Z,15.10
2023-05-15T06:28:54.660Z,15.07
2023-05-15T06:31:25.805Z,15.04
2023-05-15T06:33:55.667Z,15.00
2023-05-15T06:36:25.540Z,15.00
2023-05-15T06:38:55.102Z,15.04
2023-05-15T06:41:25.684Z,15.09
2023-05-15T06:43:55.797Z,15.11
2023-05-15T06:46:25.973Z,15.13
2023-05-15T06:48:55.111Z,15.19
2023-05-15T06:51:24.030Z,15.19
2023-05-15T06:53:52.740Z,15.21
2023-05-15T06:56:22.336Z,15.26
2023-05-15T06:58:52.339Z,15.32
2023-05-15T07:01:21.399Z,15.36
2023-05-15T07:03:50.441Z,15.35
2023-05-15T07:06:19.307Z,15.29
2023-05-15T07:08:48.565Z,15.29
2023-05-15T07:11:17.784Z,15.32
2023-05-15T07:13:47.126Z,15.26
2023-05-15T07:16:17.220Z,15.17
2023-05-15T07:18:48.277Z,15.06
2023-05-15T07:21:24.162Z,14.93
2023-05-15T07:23:54.416Z,14.89
2023-05-15T07:26:34.171Z,14.82
2023-05-15T07:29:07.885Z,14.73
2023-05-15T07:32:08.524Z,14.68
2023-05-15T07:34:37.678Z,14.66
2023-05-15T07:37:07.395Z,14.60
2023-05-15T07:39:36.852Z,14.52
2023-05-15T07:42:06.710Z,14.42
2023-05-15T07:44:37.096Z,14.35
2023-05-15T07:47:06.950Z,14.25
2023-05-15T07:49:40.105Z,14.14
2023-05-15T07:52:09.278Z,14.04
2023-05-15T07:54:41.967Z,13.91
2023-05-15T07:57:11.203Z,13.77
2023-05-15T07:59:42.346Z,13.67
2023-05-15T08:02:12.106Z,13.63
2023-05-15T08:04:42.131Z,13.58
2023-05-15T08:07:15.571Z,13.54
2023-05-15T08:09:45.389Z,13.49
2023-05-15T08:12:18.333Z,13.41
2023-05-15T08:14:51.712Z,13.34
2023-05-15T08:17:23.993Z,13.28
2023-05-15T08:19:53.260Z,13.23
2023-05-15T08:22:24.138Z,13.17
2023-05-15T08:24:53.538Z,13.09
2023-05-15T08:27:22.945Z,13.06
2023-05-15T08:29:54.451Z,13.04
2023-05-15T08:32:24.640Z,13.02
2023-05-15T08:34:54.145Z,13.01
2023-05-15T08:37:24.196Z,13.02
2023-05-15T08:39:53.666Z,13.01
2023-05-15T08:42:25.567Z,13.00
2023-05-15T08:44:57.816Z,12.99
2023-05-15T08:47:37.809Z,13.03
2023-05-15T08:50:09.784Z,13.10
2023-05-15T08:52:43.200Z,13.13
2023-05-15T08:55:20.001Z,13.15
2023-05-15T08:57:52.401Z,13.20
2023-05-15T09:00:24.361Z,13.19
2023-05-15T09:02:54.823Z,13.16
2023-05-15T09:05:28.043Z,13.14
2023-05-15T09:07:57.658Z,13.16
2023-05-15T09:10:26.641Z,13.20
2023-05-15T09:12:57.981Z,13.20
2023-05-15T09:15:28.791Z,13.22
2023-05-15T09:17:58.547Z,13.27
2023-05-15T09:20:35.370Z,13.29
2023-05-15T09:23:06.805Z,13.30
2023-05-15T09:25:36.114Z,13.35
2023-05-15T09:28:11.967Z,13.32
2023-05-15T09:30:47.893Z,13.25
2023-05-15T09:33:17.720Z,13.19
2023-05-15T09:35:46.499Z,13.13
2023-05-15T09:38:15.839Z,13.08
2023-05-15T09:40:44.572Z,13.05
2023-05-15T09:43:16.661Z,13.02
2023-05-15T09:45:48.831Z,12.98
2023-05-15T09:48:18.668Z,12.89
2023-05-15T09:50:52.900Z,12.87
2023-05-15T09:53:23.555Z,12.89
2023-05-15T09:55:53.540Z,12.94
2023-05-15T09:58:26.503Z,13.00
2023-05-15T10:00:59.700Z,13.08
2023-05-15T10:03:29.643Z,13.16
2023-05-15T10:06:00.304Z,13.30
2023-05-15T10:08:30.239Z,13.36
2023-05-15T10:11:01.214Z,13.41
2023-05-15T10:13:34.021Z,13.43
2023-05-15T10:16:05.186Z,13.47
2023-05-15T10:18:36.584Z,13.54
2023-05-15T10:21:06.947Z,13.62
2023-05-15T10:23:40.058Z,13.64
2023-05-15T10:26:14.640Z,13.68
2023-05-15T10:28:44.962Z,13.72
2023-05-15T10:31:19.420Z,13.72
2023-05-15T10:33:51.323Z,13.73
2023-05-15T10:36:22.745Z,13.69
2023-05-15T10:38:54.826Z,13.66
2023-05-15T10:41:27.207Z,13.63
2023-05-15T10:43:59.600Z,13.54
2023-05-15T10:46:29.528Z,13.46
2023-05-15T10:49:02.306Z,13.43
2023-05-15T10:51:34.164Z,13.52
2023-05-15T10:54:06.517Z,13.62
2023-05-15T10:56:37.818Z,13.70
2023-05-15T10:59:08.524Z,13.73
2023-05-15T11:01:41.071Z,13.75
2023-05-15T11:04:18.565Z,13.74
2023-05-15T11:06:50.521Z,13.71
2023-05-15T11:09:23.130Z,13.70
2023-05-15T11:11:52.783Z,13.71
2023-05-15T11:14:25.780Z,13.71
2023-05-15T11:16:56.867Z,13.72
2023-05-15T11:19:51.431Z,13.70
2023-05-15T11:22:22.776Z,13.67
2023-05-15T11:24:56.154Z,13.68
2023-05-15T11:27:47.941Z,13.71
2023-05-15T11:30:44.410Z,13.78
2023-05-15T11:33:14.341Z,13.80
2023-05-15T11:35:48.763Z,13.77
2023-05-15T11:38:18.886Z,13.75
2023-05-15T11:40:54.115Z,13.73
2023-05-15T11:43:27.781Z,13.76
2023-05-15T11:45:59.404Z,13.78
2023-05-15T11:48:31.877Z,13.78
2023-05-15T11:51:01.651Z,13.74
2023-05-15T11:53:31.352Z,13.70
2023-05-15T11:56:01.164Z,13.67
2023-05-15T11:58:31.395Z,13.66
2023-05-15T12:01:04.606Z,13.62
2023-05-15T12:03:37.816Z,13.59
2023-05-15T12:06:07.984Z,13.52
2023-05-15T12:08:42.202Z,13.46
2023-05-15T12:11:12.425Z,13.45
2023-05-15T12:13:42.419Z,13.47
2023-05-15T12:16:11.347Z,13.49
2023-05-15T12:18:40.571Z,13.48
2023-05-15T12:21:11.311Z,13.43
2023-05-15T12:23:40.637Z,13.35
2023-05-15T12:26:10.351Z,13.29
2023-05-15T12:28:39.226Z,13.28
2023-05-15T12:31:10.931Z,13.26
2023-05-15T12:33:39.982Z,13.20
2023-05-15T12:36:12.537Z,13.22
2023-05-15T12:38:43.723Z,13.20
2023-05-15T12:41:14.555Z,13.19
2023-05-15T12:43:43.263Z,13.15
2023-05-15T12:46:14.019Z,13.12
2023-05-15T12:48:42.885Z,13.12
2023-05-15T12:51:14.148Z,13.10
2023-05-15T12:53:44.577Z,13.11
2023-05-15T12:56:17.952Z,13.13
2023-05-15T12:58:48.110Z,13.13
2023-05-15T13:01:18.455Z,13.13
2023-05-15T13:03:50.044Z,13.14
2023-05-15T13:06:20.177Z,13.13
2023-05-15T13:08:49.430Z,13.14
2023-05-15T13:11:20.407Z,13.19
2023-05-15T13:13:52.124Z,13.23
2023-05-15T13:16:25.201Z,13.29
2023-05-15T13:18:58.972Z,13.33
2023-05-15T13:21:28.166Z,13.30
2023-05-15T13:23:58.679Z,13.26
2023-05-15T13:26:27.997Z,13.24
2023-05-15T13:28:58.061Z,13.21
2023-05-15T13:31:28.805Z,13.14
2023-05-15T13:33:59.908Z,13.08
2023-05-15T13:36:29.721Z,13.07
2023-05-15T13:38:59.006Z,13.08
2023-05-15T13:41:29.391Z,13.06
2023-05-15T13:44:00.631Z,13.07
2023-05-15T13:46:30.791Z,13.08
2023-05-15T13:48:59.762Z,13.09
2023-05-15T13:51:31.968Z,13.07
2023-05-15T13:54:00.830Z,13.08
2023-05-15T13:56:30.395Z,13.07
2023-05-15T13:58:59.311Z,13.06
2023-05-15T14:01:30.000Z,13.07
2023-05-15T14:04:00.212Z,13.09
2023-05-15T14:06:34.402Z,13.09
2023-05-15T14:09:05.037Z,13.06
2023-05-15T14:11:36.332Z,13.02
2023-05-15T14:14:06.816Z,13.03
2023-05-15T14:16:36.479Z,12.99
2023-05-15T14:19:06.003Z,12.99
2023-05-15T14:21:36.191Z,12.95
2023-05-15T14:24:08.120Z,12.95
2023-05-15T14:26:41.621Z,12.94
2023-05-15T14:29:10.975Z,12.96
2023-05-15T14:31:43.212Z,12.97
2023-05-15T14:34:12.152Z,12.97
2023-05-15T14:36:41.704Z,12.97
2023-05-15T14:39:10.495Z,12.99
2023-05-15T14:41:41.320Z,12.98
2023-05-15T14:44:11.471Z,13.01
2023-05-15T14:46:42.565Z,13.01
2023-05-15T14:49:11.465Z,13.00
2023-05-15T14:51:41.990Z,13.00
2023-05-15T14:54:12.456Z,12.99
2023-05-15T14:56:41.260Z,13.00
2023-05-15T14:59:12.658Z,13.03
2023-05-15T15:01:41.812Z,13.06
2023-05-15T15:04:10.671Z,13.07
2023-05-15T15:06:39.564Z,13.10
2023-05-15T15:09:10.559Z,13.14
2023-05-15T15:11:41.202Z,13.14
2023-05-15T15:14:12.879Z,13.17
2023-05-15T15:16:46.913Z,13.21
2023-05-15T15:19:19.000Z,13.23
2023-05-15T15:21:50.565Z,13.24
2023-05-15T15:24:20.588Z,13.25
2023-05-15T15:26:50.728Z,13.23
2023-05-15T15:29:20.410Z,13.21
2023-05-15T15:32:20.378Z,13.18
2023-05-15T15:34:50.887Z,13.14
2023-05-15T15:37:19.784Z,13.15
2023-05-15T15:39:48.621Z,13.15
2023-05-15T15:42:17.416Z,13.14
2023-05-15T15:44:46.327Z,13.12
2023-05-15T15:47:16.515Z,13.09
2023-05-15T15:49:45.326Z,13.09
2023-05-15T15:52:16.060Z,13.06
2023-05-15T15:57:41.644Z,13.09
2023-05-15T16:00:12.148Z,13.08
2023-05-15T16:02:43.223Z,13.08
2023-05-15T16:05:13.831Z,13.10
2023-05-15T16:07:49.779Z,13.12
2023-05-15T16:10:18.618Z,13.14
2023-05-15T16:12:48.436Z,13.17
2023-05-15T16:15:23.436Z,13.18
2023-05-15T16:17:54.970Z,13.21
2023-05-15T16:20:25.034Z,13.27
2023-05-15T16:22:55.745Z,13.32
2023-05-15T16:25:25.553Z,13.36
2023-05-15T16:27:54.838Z,13.38
2023-05-15T16:30:30.588Z,13.39
2023-05-15T16:33:09.517Z,13.37
2023-05-15T16:35:39.683Z,13.40
2023-05-15T16:38:09.689Z,13.42
2023-05-15T16:40:39.445Z,13.45
2023-05-15T16:43:09.144Z,13.47
2023-05-15T16:45:38.178Z,13.45
2023-05-15T16:48:07.590Z,13.45
2023-05-15T16:50:38.128Z,13.47
2023-05-15T16:53:08.250Z,13.52
2023-05-15T16:55:38.904Z,13.53
2023-05-15T16:58:07.625Z,13.52
2023-05-15T17:00:40.086Z,13.52
2023-05-15T17:03:09.166Z,13.52
2023-05-15T17:05:38.047Z,13.51
2023-05-15T17:08:06.927Z,13.49
2023-05-15T17:10:36.425Z,13.46
2023-05-15T17:13:05.682Z,13.47
2023-05-15T17:15:35.212Z,13.47
2023-05-15T17:18:06.541Z,13.48
2023-05-15T17:20:36.381Z,13.50
2023-05-15T17:23:07.052Z,13.50
2023-05-15T17:25:36.109Z,13.50
2023-05-15T17:28:06.083Z,13.50
2023-05-15T17:30:39.850Z,13.52
2023-05-15T17:33:10.945Z,13.55
2023-05-15T17:35:40.128Z,13.58
2023-05-15T17:38:09.673Z,13.56
2023-05-15T17:40:38.928Z,13.58
2023-05-15T17:43:11.232Z,13.58
2023-05-15T17:45:39.997Z,13.57
2023-05-15T17:48:09.284Z,13.60
2023-05-15T17:50:40.226Z,13.62
2023-05-15T17:53:12.613Z,13.62
2023-05-15T17:55:44.035Z,13.62
2023-05-15T17:58:14.130Z,13.62
2023-05-15T18:00:43.468Z,13.64
2023-05-15T18:03:12.278Z,13.64
2023-05-15T18:05:42.796Z,13.63
2023-05-15T18:08:12.454Z,13.64
2023-05-15T18:10:43.770Z,13.66
2023-05-15T18:13:12.948Z,13.66
2023-05-15T18:15:44.072Z,13.65
2023-05-15T18:18:13.839Z,13.67
2023-05-15T18:20:43.014Z,13.65
2023-05-15T18:23:13.828Z,13.64
2023-05-15T18:25:43.557Z,13.65
2023-05-15T18:28:13.586Z,13.64
2023-05-15T18:30:47.553Z,13.63
2023-05-15T18:33:18.948Z,13.61
2023-05-15T18:35:48.068Z,13.61
2023-05-15T18:38:19.477Z,13.58
2023-05-15T18:40:49.006Z,13.55
2023-05-15T18:43:18.256Z,13.53
2023-05-15T18:45:49.105Z,13.50
2023-05-15T18:48:18.851Z,13.46
2023-05-15T18:50:49.256Z,13.42
2023-05-15T18:53:19.292Z,13.39
2023-05-15T18:55:49.650Z,13.38
2023-05-15T18:58:20.699Z,13.37
2023-05-15T19:00:51.821Z,13.37
2023-05-15T19:03:23.726Z,13.37
2023-05-15T19:05:52.601Z,13.36
2023-05-15T19:08:23.400Z,13.39
2023-05-15T19:10:53.602Z,13.40
2023-05-15T19:13:26.771Z,13.41
2023-05-15T19:15:55.886Z,13.41
2023-05-15T19:18:26.113Z,13.40
2023-05-15T19:20:57.103Z,13.40
2023-05-15T19:23:28.000Z,13.38
2023-05-15T19:25:56.909Z,13.36
2023-05-15T19:28:25.977Z,13.34
2023-05-15T19:31:31.519Z,13.34
2023-05-15T19:34:02.487Z,13.34
2023-05-15T19:36:33.742Z,13.36
2023-05-15T19:39:05.062Z,13.35
2023-05-15T19:41:36.678Z,13.35
2023-05-15T19:44:07.708Z,13.33
2023-05-15T19:46:36.937Z,13.34
2023-05-15T19:49:06.326Z,13.33
2023-05-15T19:51:38.260Z,13.32
2023-05-15T19:54:08.522Z,13.32
2023-05-15T19:56:39.177Z,13.32
2023-05-15T19:59:08.920Z,13.28
2023-05-15T20:01:38.905Z,13.24
2023-05-15T20:04:08.136Z,13.20
2023-05-15T20:06:37.777Z,13.18
2023-05-15T20:09:06.882Z,13.16
2023-05-15T20:11:35.809Z,13.14
2023-05-15T20:14:04.970Z,13.11
2023-05-15T20:16:35.981Z,13.07
2023-05-15T20:19:06.056Z,13.03
2023-05-15T20:21:35.569Z,13.00
2023-05-15T20:24:06.090Z,12.99
2023-05-15T20:26:37.916Z,12.95
2023-05-15T20:29:06.799Z,12.90
2023-05-15T20:31:40.779Z,12.87
2023-05-15T20:34:13.632Z,12.83
2023-05-15T20:36:42.932Z,12.80
2023-05-15T20:39:12.601Z,12.78
2023-05-15T20:41:41.664Z,12.80
2023-05-15T20:44:10.773Z,12.81
2023-05-15T20:46:41.156Z,12.84
2023-05-15T20:49:13.274Z,12.86
2023-05-15T20:51:44.968Z,12.89
2023-05-15T20:54:13.975Z,12.92
2023-05-15T20:56:43.997Z,12.95
2023-05-15T20:59:15.582Z,12.98
2023-05-15T21:01:45.358Z,13.00
2023-05-15T21:04:15.234Z,13.04
2023-05-15T21:06:46.093Z,13.05
2023-05-15T21:09:16.997Z,13.08
2023-05-15T21:11:47.355Z,13.09
2023-05-15T21:14:16.483Z,13.09
2023-05-15T21:16:47.197Z,13.10
2023-05-15T21:19:17.653Z,13.09
2023-05-15T21:21:48.433Z,13.07
2023-05-15T21:24:18.743Z,13.07
2023-05-15T21:26:48.797Z,13.07
2023-05-15T21:29:20.276Z,13.08
2023-05-15T21:31:57.657Z,13.10
2023-05-15T21:34:29.262Z,13.12
2023-05-15T21:36:58.175Z,13.16
2023-05-15T21:39:30.432Z,13.20
2023-05-15T21:41:59.605Z,13.23
2023-05-15T21:44:31.594Z,13.27
2023-05-15T21:47:01.275Z,13.31
2023-05-15T21:49:33.614Z,13.33
2023-05-15T21:52:02.555Z,13.33
2023-05-15T21:54:31.441Z,13.33
2023-05-15T21:57:01.280Z,13.32
2023-05-15T21:59:32.896Z,13.31
2023-05-15T22:02:02.182Z,13.29
2023-05-15T22:04:32.331Z,13.27
2023-05-15T22:07:01.273Z,13.24
2023-05-15T22:09:30.177Z,13.21
2023-05-15T22:12:27.387Z,13.18
2023-05-15T22:14:59.404Z,13.17
2023-05-15T22:17:36.496Z,13.15
2023-05-15T22:20:09.193Z,13.13
2023-05-15T22:22:39.659Z,13.10
2023-05-15T22:25:10.032Z,13.08
2023-05-15T22:27:40.518Z,13.06
2023-05-15T22:30:40.772Z,13.04
2023-05-15T22:33:09.629Z,13.02
2023-05-15T22:35:38.505Z,13.00
2023-05-15T22:38:08.154Z,12.99
2023-05-15T22:40:38.875Z,12.97
2023-05-15T22:43:08.606Z,12.94
2023-05-15T22:45:37.308Z,12.93
2023-05-15T22:48:08.053Z,12.92
2023-05-15T22:50:38.144Z,12.90
2023-05-15T22:53:07.518Z,12.89
2023-05-15T22:55:38.129Z,12.89
2023-05-15T22:58:07.278Z,12.88
2023-05-15T23:00:36.220Z,12.86
2023-05-15T23:03:09.485Z,12.84
2023-05-15T23:05:40.896Z,12.82
2023-05-15T23:08:10.630Z,12.80
2023-05-15T23:10:41.062Z,12.77
2023-05-15T23:13:10.136Z,12.76
2023-05-15T23:15:41.092Z,12.74
2023-05-15T23:18:11.280Z,12.73
2023-05-15T23:20:42.499Z,12.72
2023-05-15T23:23:12.969Z,12.71
2023-05-15T23:25:43.904Z,12.71
2023-05-15T23:28:12.584Z,12.70
2023-05-15T23:30:46.443Z,12.68
2023-05-15T23:33:15.768Z,12.67
2023-05-15T23:35:44.541Z,12.67
2023-05-15T23:38:16.243Z,12.67
2023-05-15T23:40:45.346Z,12.65
2023-05-15T23:43:16.230Z,12.65
2023-05-15T23:45:46.593Z,12.64
2023-05-15T23:48:17.189Z,12.62
2023-05-15T23:50:47.114Z,12.61
2023-05-15T23:53:17.837Z,12.60
2023-05-15T23:55:46.919Z,12.59
2023-05-15T23:58:16.197Z,12.58
